Foxholm, North Dakota
Current Conditions -  °F | °C
As of 5:58 AM on Friday 21 Nov 2014 (Local Time) from KMIB Reporting Station
Clear Clear  
Wind Chill: 17°   Ceiling: Unl
Heat Index: 24°   Visibility: 10mi
Dew Point: 20°   Wind: 6mph
Humidity: 85%   Direction: 210°SSW
Pressure: 29.65"   Gusts: NA
Location:  48.3281°N, 101.856°W
Report Text: KMIB 211158Z AUTO 21005KT 10SM CLR M04/M07 A2965 RMK AO2 SLP074 T10441066 11039 21062 57019
Loading
Personal Weather Stations






























Interactive Weather Map New forecast layout! Learn more

10-Day Weather Forecast

Advertisements
Track Severe Weather on mobile